Time;durP1;ratioP1;P1;durP2;ratioP2;P2;SDS_P1;SDS_P2;PMS_P1;PMS_P2;Temp;Humidity;BMP_temperature;BMP_pressure;BME280_temperature;BME280_humidity;BME280_pressure;Samples;Min_cycle;Max_cycle;Signal;HPM_P1;HPM_P2
2021/09/13 00:00:47;;;;;;;184.83;103.83;;;;;;;;;;5099431;28;20441;-55
2021/09/13 00:03:15;;;;;;;116.80;62.30;;;;;;;;;;5097068;28;20478;-57
2021/09/13 00:05:42;;;;;;;242.17;124.80;;;;;;;;;;5098597;28;20452;-47
2021/09/13 00:08:10;;;;;;;170.93;81.47;;;;;;;;;;5098356;28;20482;-48
2021/09/13 00:10:43;;;;;;;235.37;122.83;;;;;;;;;;5098550;28;20497;-53
2021/09/13 00:13:10;;;;;;;160.90;83.70;;;;;;;;;;5098721;28;20464;-53
2021/09/13 00:15:38;;;;;;;180.23;88.07;;;;;;;;;;5098486;28;20432;-55
2021/09/13 00:18:08;;;;;;;157.13;77.67;;;;;;;;;;5097662;28;20480;-55
2021/09/13 00:20:37;;;;;;;233.00;109.50;;;;;;;;;;5098867;28;20439;-59
2021/09/13 00:23:04;;;;;;;191.73;92.43;;;;;;;;;;5098936;28;20478;-54
2021/09/13 00:25:32;;;;;;;113.10;51.47;;;;;;;;;;5098514;28;20460;-54
2021/09/13 00:27:59;;;;;;;13.47;7.83;;;;;;;;;;5098893;28;20413;-53
2021/09/13 00:30:37;;;;;;;22.70;12.83;;;;;;;;;;5098136;28;20490;-51
2021/09/13 00:33:04;;;;;;;94.37;47.63;;;;;;;;;;5098634;28;20462;-54
2021/09/13 00:35:33;;;;;;;75.77;39.50;;;;;;;;;;5098276;28;20456;-55
2021/09/13 00:38:00;;;;;;;98.70;59.60;;;;;;;;;;5098386;28;20479;-52
2021/09/13 00:40:28;;;;;;;47.07;29.57;;;;;;;;;;5097910;28;20440;-58
2021/09/13 00:42:58;;;;;;;93.23;58.77;;;;;;;;;;5098778;28;20436;-54
2021/09/13 00:45:25;;;;;;;152.73;90.33;;;;;;;;;;5097578;28;20456;-55
2021/09/13 00:47:52;;;;;;;128.87;75.50;;;;;;;;;;5097893;28;20436;-52
2021/09/13 00:50:22;;;;;;;273.40;157.07;;;;;;;;;;5097176;28;20452;-54
2021/09/13 00:52:53;;;;;;;207.93;119.17;;;;;;;;;;5097660;28;20541;-49
2021/09/13 00:55:21;;;;;;;155.73;91.63;;;;;;;;;;5097930;28;20460;-54
2021/09/13 00:58:07;;;;;;;140.33;82.67;;;;;;;;;;5097693;28;20480;-51
2021/09/13 01:00:34;;;;;;;71.77;43.90;;;;;;;;;;5097812;28;20428;-52
2021/09/13 01:03:02;;;;;;;72.83;43.80;;;;;;;;;;5097246;28;20486;-52
2021/09/13 01:06:01;;;;;;;57.73;34.43;;;;;;;;;;5097234;28;20510;-51
2021/09/13 01:08:31;;;;;;;30.70;18.00;;;;;;;;;;5096924;28;20448;-49
2021/09/13 01:10:58;;;;;;;28.37;15.80;;;;;;;;;;5097186;28;20452;-54
2021/09/13 01:13:34;;;;;;;22.03;9.57;;;;;;;;;;5097589;28;20460;-53
2021/09/13 01:16:04;;;;;;;9.03;6.37;;;;;;;;;;5097529;28;20460;-58
2021/09/13 01:18:31;;;;;;;15.63;8.93;;;;;;;;;;5097269;28;20472;-49
2021/09/13 01:21:11;;;;;;;10.23;7.50;;;;;;;;;;5097066;28;20456;-55
2021/09/13 01:23:40;;;;;;;7.93;5.20;;;;;;;;;;5097331;28;20482;-54
2021/09/13 01:26:07;;;;;;;6.40;5.43;;;;;;;;;;5096443;28;20456;-56
2021/09/13 01:28:38;;;;;;;8.50;6.03;;;;;;;;;;5093851;28;20468;-52
2021/09/13 01:31:05;;;;;;;22.47;8.03;;;;;;;;;;5076495;28;20508;-49
2021/09/13 01:33:33;;;;;;;15.13;8.00;;;;;;;;;;5077359;28;20445;-52
2021/09/13 01:36:06;;;;;;;10.20;6.87;;;;;;;;;;5076943;28;20452;-52
2021/09/13 01:38:34;;;;;;;9.23;6.83;;;;;;;;;;5077140;28;20488;-54
2021/09/13 01:41:03;;;;;;;12.67;8.70;;;;;;;;;;5077221;28;20440;-57
2021/09/13 01:43:30;;;;;;;21.43;12.47;;;;;;;;;;5077017;28;20483;-50
2021/09/13 01:45:57;;;;;;;15.73;9.77;;;;;;;;;;5083619;28;20509;-51
2021/09/13 01:48:29;;;;;;;15.80;9.63;;;;;;;;;;5097135;28;20459;-48
2021/09/13 01:50:58;;;;;;;15.40;10.20;;;;;;;;;;5096624;28;20439;-53
2021/09/13 01:53:25;;;;;;;15.67;9.67;;;;;;;;;;5076609;28;20449;-54
2021/09/13 01:56:04;;;;;;;16.53;10.13;;;;;;;;;;5076260;28;20453;-50
2021/09/13 01:58:31;;;;;;;19.40;9.43;;;;;;;;;;5076134;28;20487;-49
2021/09/13 02:00:58;;;;;;;14.10;8.03;;;;;;;;;;5095099;28;20444;-50
2021/09/13 02:03:26;;;;;;;13.80;11.23;;;;;;;;;;5115948;28;20889;-53
2021/09/13 02:05:53;;;;;;;11.10;9.20;;;;;;;;;;5083626;28;20441;-54
2021/09/13 02:08:20;;;;;;;12.07;8.83;;;;;;;;;;5076621;28;20445;-55
2021/09/13 02:10:48;;;;;;;11.70;9.30;;;;;;;;;;5075962;28;20457;-51
2021/09/13 02:13:17;;;;;;;15.30;10.30;;;;;;;;;;5076228;28;20436;-51
2021/09/13 02:16:02;;;;;;;13.43;7.50;;;;;;;;;;5076330;28;20461;-53
2021/09/13 02:18:29;;;;;;;20.27;12.23;;;;;;;;;;5076316;28;20778;-54
2021/09/13 02:20:57;;;;;;;9.80;8.20;;;;;;;;;;5076350;28;20448;-55
2021/09/13 02:23:25;;;;;;;12.73;9.40;;;;;;;;;;5076319;28;20446;-52
2021/09/13 02:25:53;;;;;;;8.20;6.20;;;;;;;;;;5075698;28;20468;-52
2021/09/13 02:28:26;;;;;;;10.57;6.17;;;;;;;;;;5076594;28;20433;-54
2021/09/13 02:31:16;;;;;;;7.63;6.10;;;;;;;;;;5076592;28;20454;-49
2021/09/13 02:33:50;;;;;;;8.70;5.20;;;;;;;;;;5076628;28;20445;-58
2021/09/13 02:36:17;;;;;;;8.23;5.40;;;;;;;;;;5077336;28;20483;-57
2021/09/13 02:38:50;;;;;;;7.37;4.70;;;;;;;;;;5096280;28;20492;-53
2021/09/13 02:41:17;;;;;;;8.50;5.20;;;;;;;;;;5095911;28;20472;-49
2021/09/13 02:43:46;;;;;;;7.17;5.00;;;;;;;;;;5102410;28;20443;-51
2021/09/13 02:46:15;;;;;;;6.97;5.40;;;;;;;;;;5115915;28;20412;-53
2021/09/13 02:48:42;;;;;;;8.07;4.83;;;;;;;;;;5116424;28;20496;-53
2021/09/13 02:51:10;;;;;;;9.23;5.47;;;;;;;;;;5116486;28;20483;-57
2021/09/13 02:53:42;;;;;;;9.63;5.77;;;;;;;;;;5117290;28;20476;-56
2021/09/13 02:56:09;;;;;;;10.67;5.47;;;;;;;;;;5115790;28;20454;-52
2021/09/13 03:01:41;;;;;;;12.07;5.70;;;;;;;;;;5087631;28;20475;-59
2021/09/13 03:04:09;;;;;;;9.63;4.93;;;;;;;;;;5075618;28;20532;-54
2021/09/13 03:07:13;;;;;;;9.23;6.20;;;;;;;;;;5075658;28;20483;-57
2021/09/13 03:09:41;;;;;;;7.43;5.73;;;;;;;;;;5087668;28;20491;-52
2021/09/13 03:12:09;;;;;;;12.13;6.27;;;;;;;;;;5095454;28;20471;-55
2021/09/13 03:14:38;;;;;;;11.73;6.10;;;;;;;;;;5094999;28;20436;-52
2021/09/13 03:17:07;;;;;;;10.93;6.50;;;;;;;;;;5095649;28;20549;-51
2021/09/13 03:20:11;;;;;;;8.37;5.60;;;;;;;;;;5096084;28;20425;-53
2021/09/13 03:22:39;;;;;;;8.83;6.10;;;;;;;;;;5096333;28;20467;-56
2021/09/13 03:25:07;;;;;;;6.90;5.60;;;;;;;;;;5095778;28;20486;-56
2021/09/13 03:27:42;;;;;;;7.40;5.33;;;;;;;;;;5096132;28;20498;-52
2021/09/13 03:30:11;;;;;;;7.23;5.30;;;;;;;;;;5096283;28;20443;-55
2021/09/13 03:32:39;;;;;;;13.00;5.23;;;;;;;;;;5099654;28;20466;-53
2021/09/13 03:35:23;;;;;;;7.07;4.93;;;;;;;;;;5095748;28;20439;-51
2021/09/13 03:37:52;;;;;;;7.30;6.10;;;;;;;;;;5095735;28;20494;-51
2021/09/13 03:40:20;;;;;;;6.67;4.93;;;;;;;;;;5096010;28;20456;-50
2021/09/13 03:43:06;;;;;;;9.00;5.27;;;;;;;;;;5095636;28;20447;-54
2021/09/13 03:45:33;;;;;;;9.87;4.97;;;;;;;;;;5095739;28;20444;-56
2021/09/13 03:48:08;;;;;;;8.77;4.60;;;;;;;;;;5096205;28;20460;-56
2021/09/13 03:51:06;;;;;;;8.90;5.07;;;;;;;;;;5095465;28;20477;-50
2021/09/13 03:53:33;;;;;;;9.57;6.37;;;;;;;;;;5098208;28;20471;-54
2021/09/13 03:56:00;;;;;;;9.33;5.80;;;;;;;;;;5099070;28;20792;-54
2021/09/13 03:58:38;;;;;;;6.90;4.77;;;;;;;;;;5098718;28;20471;-55
2021/09/13 04:01:06;;;;;;;13.70;7.50;;;;;;;;;;5099035;28;20470;-53
2021/09/13 04:03:41;;;;;;;6.73;4.93;;;;;;;;;;5078672;28;20457;-54
2021/09/13 04:06:19;;;;;;;10.60;4.80;;;;;;;;;;5078263;28;20484;-59
2021/09/13 04:09:04;;;;;;;7.20;5.97;;;;;;;;;;5078262;28;20481;-52
2021/09/13 04:11:58;;;;;;;7.30;5.17;;;;;;;;;;5078520;28;20489;-52
2021/09/13 04:14:26;;;;;;;26.57;7.70;;;;;;;;;;5096254;28;20449;-47
2021/09/13 04:16:54;;;;;;;7.27;5.70;;;;;;;;;;5098867;28;20446;-56
2021/09/13 04:22:26;;;;;;;8.23;5.40;;;;;;;;;;5098436;28;20403;-51
2021/09/13 04:24:54;;;;;;;13.27;6.40;;;;;;;;;;5098629;28;20467;-56
2021/09/13 04:27:24;;;;;;;10.53;6.00;;;;;;;;;;5097576;28;20464;-58
2021/09/13 04:29:53;;;;;;;7.07;5.80;;;;;;;;;;5096742;28;20480;-52
2021/09/13 04:32:20;;;;;;;8.53;6.40;;;;;;;;;;5098787;28;20460;-56
2021/09/13 04:34:51;;;;;;;12.20;6.90;;;;;;;;;;5098520;28;20575;-55
2021/09/13 04:37:20;;;;;;;13.90;6.10;;;;;;;;;;5096744;28;20488;-53
2021/09/13 04:42:39;;;;;;;9.80;6.97;;;;;;;;;;5098874;28;20464;-48
2021/09/13 04:45:17;;;;;;;13.53;7.03;;;;;;;;;;5098834;28;20486;-56
2021/09/13 04:47:54;;;;;;;10.67;7.00;;;;;;;;;;5099041;28;20432;-55
2021/09/13 04:50:22;;;;;;;12.73;8.10;;;;;;;;;;5097646;28;20436;-56
2021/09/13 04:52:51;;;;;;;10.50;8.10;;;;;;;;;;5097838;28;20476;-57
2021/09/13 04:58:23;;;;;;;8.97;6.67;;;;;;;;;;5094192;28;20556;-51
2021/09/13 05:00:51;;;;;;;10.43;8.43;;;;;;;;;;5097215;28;20456;-57
2021/09/13 05:03:18;;;;;;;12.10;7.17;;;;;;;;;;5096999;28;20460;-48
2021/09/13 05:05:47;;;;;;;10.50;6.33;;;;;;;;;;5096888;28;20444;-50
2021/09/13 05:08:15;;;;;;;8.70;6.73;;;;;;;;;;5096922;28;20517;-52
2021/09/13 05:10:42;;;;;;;11.90;6.40;;;;;;;;;;5084521;28;20515;-54
2021/09/13 05:13:11;;;;;;;11.87;8.30;;;;;;;;;;5084730;28;20456;-50
2021/09/13 05:15:56;;;;;;;11.50;7.80;;;;;;;;;;5097693;28;20460;-56
2021/09/13 05:21:37;;;;;;;12.63;6.70;;;;;;;;;;5098622;28;20716;-54
2021/09/13 05:27:13;;;;;;;8.90;6.93;;;;;;;;;;5035405;28;20458;-52
2021/09/13 05:29:42;;;;;;;12.07;7.20;;;;;;;;;;5097014;28;20440;-56
2021/09/13 05:32:32;;;;;;;15.37;8.20;;;;;;;;;;5097141;28;20432;-53
2021/09/13 05:35:00;;;;;;;8.00;6.60;;;;;;;;;;5097634;28;20444;-51
2021/09/13 05:37:40;;;;;;;8.97;6.57;;;;;;;;;;5096984;28;20448;-51
2021/09/13 05:40:08;;;;;;;14.10;6.20;;;;;;;;;;5096955;28;20429;-52
2021/09/13 05:42:46;;;;;;;10.03;6.43;;;;;;;;;;5096160;28;20444;-53
2021/09/13 05:45:37;;;;;;;9.50;5.70;;;;;;;;;;5096265;28;20550;-48
2021/09/13 05:48:15;;;;;;;9.67;7.00;;;;;;;;;;5090687;28;20486;-59
2021/09/13 05:50:47;;;;;;;10.60;6.77;;;;;;;;;;5086757;28;20456;-50
2021/09/13 05:53:19;;;;;;;14.10;8.67;;;;;;;;;;5095395;28;20460;-56
2021/09/13 05:55:56;;;;;;;12.53;6.77;;;;;;;;;;5096255;28;20440;-50
2021/09/13 05:58:24;;;;;;;13.50;7.83;;;;;;;;;;5095963;28;20484;-57
2021/09/13 06:00:51;;;;;;;10.50;8.63;;;;;;;;;;5096153;28;20510;-55
2021/09/13 06:03:20;;;;;;;9.40;7.63;;;;;;;;;;5093577;28;20464;-55
2021/09/13 06:05:49;;;;;;;9.67;7.50;;;;;;;;;;5096288;28;20484;-56
2021/09/13 06:11:26;;;;;;;11.67;7.30;;;;;;;;;;5095729;28;20430;-57
2021/09/13 06:13:53;;;;;;;9.47;7.77;;;;;;;;;;5094924;28;20507;-57
2021/09/13 06:16:25;;;;;;;11.80;7.40;;;;;;;;;;5095229;28;20468;-55
2021/09/13 06:18:54;;;;;;;12.43;8.60;;;;;;;;;;5093576;28;20523;-54
2021/09/13 06:21:22;;;;;;;11.23;9.30;;;;;;;;;;5095709;28;20661;-55
2021/09/13 06:23:51;;;;;;;11.50;9.37;;;;;;;;;;5095150;28;20460;-55
2021/09/13 06:26:19;;;;;;;12.70;9.77;;;;;;;;;;5096081;28;20460;-57
2021/09/13 06:28:46;;;;;;;9.47;8.23;;;;;;;;;;5095403;28;20455;-53
2021/09/13 06:31:25;;;;;;;13.20;9.13;;;;;;;;;;5095139;28;20489;-54
2021/09/13 06:33:53;;;;;;;12.87;8.83;;;;;;;;;;5096097;28;20491;-48
2021/09/13 06:36:21;;;;;;;11.13;8.40;;;;;;;;;;5095446;28;20468;-58
2021/09/13 06:38:51;;;;;;;10.60;7.10;;;;;;;;;;5095910;28;20484;-54
2021/09/13 06:41:19;;;;;;;14.30;7.60;;;;;;;;;;5095816;28;20412;-51
2021/09/13 06:44:22;;;;;;;12.03;7.67;;;;;;;;;;5095678;28;20420;-53
2021/09/13 06:47:04;;;;;;;8.67;6.37;;;;;;;;;;5080617;28;20495;-51
2021/09/13 06:49:36;;;;;;;10.10;6.40;;;;;;;;;;5096040;28;20450;-57
2021/09/13 06:52:30;;;;;;;9.43;6.77;;;;;;;;;;5095209;28;20444;-52
2021/09/13 06:54:58;;;;;;;9.80;6.80;;;;;;;;;;5095987;28;20456;-55
2021/09/13 06:57:29;;;;;;;8.43;6.37;;;;;;;;;;5096239;28;20444;-54
2021/09/13 07:00:00;;;;;;;9.30;6.87;;;;;;;;;;5095602;28;20499;-51
2021/09/13 07:05:38;;;;;;;11.60;7.30;;;;;;;;;;5091145;28;20537;-55
2021/09/13 07:08:19;;;;;;;10.73;7.47;;;;;;;;;;5081698;28;20451;-50
2021/09/13 07:11:01;;;;;;;13.17;7.37;;;;;;;;;;5106303;28;20460;-49
2021/09/13 07:13:46;;;;;;;11.10;7.87;;;;;;;;;;5093361;28;20495;-55
2021/09/13 07:16:16;;;;;;;10.97;7.93;;;;;;;;;;5094656;28;20516;-49
2021/09/13 07:18:44;;;;;;;10.53;8.10;;;;;;;;;;5090643;28;20523;-59
2021/09/13 07:24:21;;;;;;;11.07;7.43;;;;;;;;;;5093847;28;20486;-57
2021/09/13 07:26:49;;;;;;;17.50;10.03;;;;;;;;;;5093352;28;20567;-50
2021/09/13 07:29:25;;;;;;;16.90;9.13;;;;;;;;;;5098409;28;20447;-50
2021/09/13 07:31:53;;;;;;;14.17;9.60;;;;;;;;;;5113445;28;20480;-53
2021/09/13 07:34:22;;;;;;;17.13;9.67;;;;;;;;;;5115373;28;20459;-56
2021/09/13 07:36:57;;;;;;;14.93;8.57;;;;;;;;;;5119626;28;20449;-53
2021/09/13 07:39:27;;;;;;;15.77;10.77;;;;;;;;;;5110384;28;20529;-52
2021/09/13 07:41:58;;;;;;;14.33;8.23;;;;;;;;;;5098162;28;20525;-53
2021/09/13 07:44:57;;;;;;;15.50;10.33;;;;;;;;;;5098578;28;20464;-53
2021/09/13 07:47:27;;;;;;;26.50;11.50;;;;;;;;;;5078560;28;20449;-53
2021/09/13 07:49:55;;;;;;;17.37;11.30;;;;;;;;;;5118952;28;20439;-54
2021/09/13 07:55:30;;;;;;;15.97;10.73;;;;;;;;;;5079341;28;20440;-54
2021/09/13 07:57:58;;;;;;;17.80;12.30;;;;;;;;;;5098479;28;20519;-51
2021/09/13 08:00:31;;;;;;;14.97;9.80;;;;;;;;;;5098210;28;20513;-56
2021/09/13 08:02:58;;;;;;;18.60;11.30;;;;;;;;;;5096142;28;20509;-56
2021/09/13 08:05:26;;;;;;;21.50;12.60;;;;;;;;;;5097944;28;20458;-53
2021/09/13 08:10:58;;;;;;;18.80;13.13;;;;;;;;;;5091990;28;20462;-57
2021/09/13 08:13:26;;;;;;;23.83;12.83;;;;;;;;;;5098173;28;20448;-55
2021/09/13 08:15:55;;;;;;;18.60;12.13;;;;;;;;;;5098552;28;20452;-52
2021/09/13 08:18:25;;;;;;;22.37;14.80;;;;;;;;;;5098147;28;20482;-52
2021/09/13 08:23:56;;;;;;;33.83;16.87;;;;;;;;;;5096797;28;20550;-56
2021/09/13 08:26:28;;;;;;;27.10;17.23;;;;;;;;;;5098877;28;20436;-55
2021/09/13 08:29:03;;;;;;;22.87;15.40;;;;;;;;;;5098546;28;20424;-53
2021/09/13 08:31:31;;;;;;;26.70;16.47;;;;;;;;;;5097925;28;20430;-57
2021/09/13 08:33:58;;;;;;;22.60;14.40;;;;;;;;;;5098407;28;20520;-60
2021/09/13 08:36:29;;;;;;;19.90;14.10;;;;;;;;;;5098399;28;20448;-57
2021/09/13 08:38:57;;;;;;;19.50;13.67;;;;;;;;;;5090990;28;20507;-53
2021/09/13 08:41:24;;;;;;;23.97;15.23;;;;;;;;;;5097710;28;20460;-57
2021/09/13 08:44:09;;;;;;;20.30;14.87;;;;;;;;;;5097392;28;20490;-57
2021/09/13 08:46:42;;;;;;;20.63;15.47;;;;;;;;;;5095752;28;20510;-59
2021/09/13 08:49:12;;;;;;;21.23;15.00;;;;;;;;;;5097625;28;20456;-52
2021/09/13 08:51:39;;;;;;;19.70;14.87;;;;;;;;;;5094820;28;20488;-55
2021/09/13 08:54:09;;;;;;;24.03;17.53;;;;;;;;;;5096687;28;20444;-56
2021/09/13 08:56:40;;;;;;;24.20;16.90;;;;;;;;;;5097241;28;20472;-53
2021/09/13 09:02:14;;;;;;;24.73;18.43;;;;;;;;;;5095282;28;20489;-55
2021/09/13 09:04:46;;;;;;;22.10;16.47;;;;;;;;;;5096926;28;20436;-54
2021/09/13 09:07:18;;;;;;;25.73;18.17;;;;;;;;;;5097386;28;20460;-51
2021/09/13 09:09:52;;;;;;;21.87;16.13;;;;;;;;;;5097602;28;20440;-62
2021/09/13 09:12:31;;;;;;;21.43;16.23;;;;;;;;;;5097329;28;20490;-49
2021/09/13 09:14:58;;;;;;;26.37;18.10;;;;;;;;;;5096968;28;20456;-48
2021/09/13 09:17:35;;;;;;;24.10;17.40;;;;;;;;;;5097219;28;20467;-54
2021/09/13 09:20:13;;;;;;;22.00;18.10;;;;;;;;;;5097035;28;20578;-55
2021/09/13 09:22:46;;;;;;;24.03;16.90;;;;;;;;;;5094685;28;20930;-58
2021/09/13 09:25:32;;;;;;;22.80;18.00;;;;;;;;;;5112964;28;20447;-51
2021/09/13 09:28:21;;;;;;;20.37;16.00;;;;;;;;;;5097033;28;20506;-55
2021/09/13 09:30:51;;;;;;;23.40;17.40;;;;;;;;;;5094804;28;20476;-54
2021/09/13 09:33:20;;;;;;;21.90;16.00;;;;;;;;;;5096211;28;20470;-56
2021/09/13 09:35:49;;;;;;;32.93;18.10;;;;;;;;;;5096407;28;20526;-59
2021/09/13 09:38:36;;;;;;;27.90;18.10;;;;;;;;;;5096124;28;20470;-52
2021/09/13 09:41:20;;;;;;;21.57;16.87;;;;;;;;;;5095872;28;20425;-54
2021/09/13 09:43:56;;;;;;;45.57;35.83;;;;;;;;;;5092360;28;20464;-54
2021/09/13 09:46:25;;;;;;;18.70;15.60;;;;;;;;;;5095999;28;20471;-55
2021/09/13 09:49:15;;;;;;;24.53;17.20;;;;;;;;;;5096312;28;20459;-55
2021/09/13 09:51:44;;;;;;;20.93;15.10;;;;;;;;;;5095853;28;20439;-54
2021/09/13 09:54:13;;;;;;;21.57;18.43;;;;;;;;;;5096453;28;20480;-48
2021/09/13 09:56:41;;;;;;;18.33;16.37;;;;;;;;;;5095575;28;20470;-55
2021/09/13 09:59:09;;;;;;;20.70;17.00;;;;;;;;;;5095776;28;20582;-52
2021/09/13 10:01:47;;;;;;;24.40;17.27;;;;;;;;;;5095937;28;20482;-53
2021/09/13 10:04:17;;;;;;;22.50;17.10;;;;;;;;;;5095660;28;20491;-52
2021/09/13 10:06:48;;;;;;;22.77;15.63;;;;;;;;;;5096516;28;20458;-54
2021/09/13 10:09:51;;;;;;;20.63;15.97;;;;;;;;;;5095443;28;20524;-51
2021/09/13 10:12:19;;;;;;;24.20;17.63;;;;;;;;;;5096320;28;20482;-60
2021/09/13 10:14:46;;;;;;;23.80;19.20;;;;;;;;;;5096095;28;20455;-44
2021/09/13 10:17:15;;;;;;;24.23;16.30;;;;;;;;;;5095796;28;20443;-56
2021/09/13 10:19:45;;;;;;;19.97;16.77;;;;;;;;;;5095222;28;20492;-49
2021/09/13 10:22:13;;;;;;;25.03;17.83;;;;;;;;;;5095077;28;20420;-57
2021/09/13 10:24:40;;;;;;;28.97;18.10;;;;;;;;;;5096179;28;20429;-55
2021/09/13 10:27:09;;;;;;;27.47;16.77;;;;;;;;;;5095389;28;20440;-57
2021/09/13 10:32:52;;;;;;;21.43;15.60;;;;;;;;;;5095394;28;20411;-48
2021/09/13 10:35:40;;;;;;;22.93;17.10;;;;;;;;;;5093641;28;20504;-55
2021/09/13 10:38:10;;;;;;;21.47;16.17;;;;;;;;;;5095928;28;20440;-55
2021/09/13 10:40:43;;;;;;;24.60;17.33;;;;;;;;;;5096316;28;20484;-53
2021/09/13 10:43:18;;;;;;;19.70;15.47;;;;;;;;;;5098987;28;20540;-49
2021/09/13 10:45:46;;;;;;;27.80;16.50;;;;;;;;;;5095355;28;20452;-54
2021/09/13 10:48:18;;;;;;;21.57;15.30;;;;;;;;;;5096023;28;20428;-49
2021/09/13 10:51:12;;;;;;;23.00;15.00;;;;;;;;;;5095594;28;20456;-56
2021/09/13 10:53:40;;;;;;;22.07;14.33;;;;;;;;;;5094174;28;20429;-50
2021/09/13 10:56:28;;;;;;;19.70;14.83;;;;;;;;;;5099215;28;20473;-54
2021/09/13 10:58:56;;;;;;;24.67;17.07;;;;;;;;;;5115704;28;20485;-54
2021/09/13 11:01:35;;;;;;;20.90;13.97;;;;;;;;;;5116629;28;20473;-57
2021/09/13 11:04:09;;;;;;;19.03;15.53;;;;;;;;;;5104254;28;20448;-53
2021/09/13 11:06:41;;;;;;;24.53;14.90;;;;;;;;;;5097739;28;20566;-55
2021/09/13 11:09:11;;;;;;;18.23;12.33;;;;;;;;;;5099848;28;20500;-56
2021/09/13 11:11:46;;;;;;;14.93;13.33;;;;;;;;;;5084052;28;20465;-54
2021/09/13 11:14:21;;;;;;;16.07;13.07;;;;;;;;;;5079710;28;20456;-53
2021/09/13 11:16:54;;;;;;;17.13;12.00;;;;;;;;;;5078796;28;20444;-55
2021/09/13 11:19:28;;;;;;;20.87;13.40;;;;;;;;;;5079107;28;20479;-61
2021/09/13 11:21:58;;;;;;;21.13;13.33;;;;;;;;;;5078759;28;20447;-47
2021/09/13 11:24:26;;;;;;;16.00;13.37;;;;;;;;;;5078778;28;20441;-52
2021/09/13 11:27:03;;;;;;;13.17;9.77;;;;;;;;;;5078696;28;20554;-47
2021/09/13 11:29:31;;;;;;;11.97;7.97;;;;;;;;;;5078332;28;20454;-58
2021/09/13 11:32:02;;;;;;;10.03;7.43;;;;;;;;;;5078032;28;20457;-53
2021/09/13 11:34:32;;;;;;;11.27;7.90;;;;;;;;;;5077903;28;20480;-54
2021/09/13 11:37:04;;;;;;;10.87;7.53;;;;;;;;;;5077760;28;20445;-56
2021/09/13 11:39:32;;;;;;;8.50;5.80;;;;;;;;;;5062308;28;20504;-53
2021/09/13 11:45:07;;;;;;;10.33;6.40;;;;;;;;;;5077954;28;20447;-59
2021/09/13 11:47:38;;;;;;;9.80;7.07;;;;;;;;;;5077071;28;20449;-56
2021/09/13 11:52:55;;;;;;;17.83;7.13;;;;;;;;;;5076860;28;20492;-56
2021/09/13 11:55:27;;;;;;;6.70;5.97;;;;;;;;;;5073702;28;20400;-55
2021/09/13 12:01:07;;;;;;;8.07;6.40;;;;;;;;;;5065652;28;20483;-49
2021/09/13 12:03:36;;;;;;;7.10;5.20;;;;;;;;;;5077913;28;20445;-54
2021/09/13 12:06:04;;;;;;;7.93;6.13;;;;;;;;;;5071813;28;20448;-55
2021/09/13 12:08:40;;;;;;;5.70;4.90;;;;;;;;;;5077989;28;20449;-53
2021/09/13 12:11:26;;;;;;;8.90;7.37;;;;;;;;;;5079367;28;20456;-56
2021/09/13 12:13:58;;;;;;;7.97;6.23;;;;;;;;;;5075790;28;20501;-53
2021/09/13 12:16:25;;;;;;;7.80;7.00;;;;;;;;;;5079112;28;20590;-51
2021/09/13 12:18:54;;;;;;;8.40;6.70;;;;;;;;;;5078801;28;20464;-57
2021/09/13 12:21:21;;;;;;;10.20;7.60;;;;;;;;;;5078208;28;20473;-54
2021/09/13 12:24:01;;;;;;;8.37;6.67;;;;;;;;;;5078739;28;20437;-54
2021/09/13 12:26:37;;;;;;;8.80;6.80;;;;;;;;;;5078446;28;20484;-56
2021/09/13 12:29:11;;;;;;;8.67;6.30;;;;;;;;;;5078231;28;20461;-57
2021/09/13 12:31:39;;;;;;;12.03;6.90;;;;;;;;;;5074352;28;20469;-49
2021/09/13 12:34:51;;;;;;;9.60;7.87;;;;;;;;;;5058224;28;20460;-53
2021/09/13 12:37:37;;;;;;;12.07;8.13;;;;;;;;;;5074276;28;20487;-59
2021/09/13 12:40:10;;;;;;;10.10;8.00;;;;;;;;;;5077968;28;20487;-54
2021/09/13 12:42:38;;;;;;;8.63;6.60;;;;;;;;;;5077020;28;20480;-50
2021/09/13 12:45:06;;;;;;;10.60;7.90;;;;;;;;;;5076858;28;20445;-57
2021/09/13 12:50:40;;;;;;;9.13;6.70;;;;;;;;;;5076398;28;20514;-55
2021/09/13 12:53:15;;;;;;;13.00;8.60;;;;;;;;;;5078065;28;20429;-49
2021/09/13 12:58:58;;;;;;;12.90;9.00;;;;;;;;;;5076950;28;20440;-52
2021/09/13 13:01:30;;;;;;;20.13;13.30;;;;;;;;;;5075484;28;20520;-51
2021/09/13 13:04:17;;;;;;;14.90;11.40;;;;;;;;;;5076945;28;20445;-52
2021/09/13 13:06:47;;;;;;;9.20;8.10;;;;;;;;;;5076167;28;20508;-55
2021/09/13 13:09:29;;;;;;;13.30;7.23;;;;;;;;;;5065486;28;20460;-54
2021/09/13 13:12:10;;;;;;;11.10;8.30;;;;;;;;;;5077622;28;20528;-55
2021/09/13 13:18:07;;;;;;;13.60;9.33;;;;;;;;;;5064258;28;20466;-55
2021/09/13 13:20:59;;;;;;;10.37;9.27;;;;;;;;;;5062492;28;20486;-56
2021/09/13 13:23:29;;;;;;;11.23;8.80;;;;;;;;;;5058978;28;20512;-58
2021/09/13 13:26:18;;;;;;;16.40;11.90;;;;;;;;;;5061085;28;20469;-53
2021/09/13 13:31:28;;;;;;;17.63;14.30;;;;;;;;;;5067953;28;20742;-53
2021/09/13 13:37:10;;;;;;;10.13;9.10;;;;;;;;;;5077344;28;20428;-53
2021/09/13 13:39:39;;;;;;;14.20;9.93;;;;;;;;;;5077373;28;20457;-55
2021/09/13 13:42:21;;;;;;;10.20;8.80;;;;;;;;;;5076618;28;20459;-55
2021/09/13 13:44:51;;;;;;;11.00;9.60;;;;;;;;;;5074290;28;20477;-56
2021/09/13 13:47:22;;;;;;;13.40;9.17;;;;;;;;;;5076567;28;20468;-55
2021/09/13 13:52:58;;;;;;;29.33;26.20;;;;;;;;;;5074490;28;20479;-59
2021/09/13 13:58:35;;;;;;;15.70;13.33;;;;;;;;;;5075567;28;20488;-59
2021/09/13 14:01:03;;;;;;;12.93;11.30;;;;;;;;;;5075327;28;20492;-57
2021/09/13 14:03:35;;;;;;;14.20;8.67;;;;;;;;;;5073736;28;20444;-49
2021/09/13 14:06:24;;;;;;;14.40;9.63;;;;;;;;;;5076421;28;20461;-58
2021/09/13 14:09:04;;;;;;;13.80;10.53;;;;;;;;;;5073783;28;20489;-51
2021/09/13 14:11:38;;;;;;;17.20;13.53;;;;;;;;;;5076014;28;20480;-48
2021/09/13 14:14:07;;;;;;;11.47;10.20;;;;;;;;;;5076030;28;20452;-55
2021/09/13 14:16:35;;;;;;;10.40;9.13;;;;;;;;;;5075520;28;20540;-54
2021/09/13 14:19:04;;;;;;;11.63;9.70;;;;;;;;;;5075086;28;20505;-50
2021/09/13 14:21:34;;;;;;;12.67;9.90;;;;;;;;;;5075628;28;20477;-57
2021/09/13 14:24:02;;;;;;;9.60;8.63;;;;;;;;;;5073486;28;20457;-59
2021/09/13 14:26:34;;;;;;;11.73;9.87;;;;;;;;;;5055165;28;20500;-58
2021/09/13 14:29:05;;;;;;;14.13;10.73;;;;;;;;;;5057590;28;20477;-54
2021/09/13 14:31:46;;;;;;;13.23;10.60;;;;;;;;;;5075543;28;20476;-55
2021/09/13 14:34:29;;;;;;;15.40;11.07;;;;;;;;;;5074660;28;20456;-55
2021/09/13 14:37:07;;;;;;;12.60;9.17;;;;;;;;;;5075639;28;20442;-51
2021/09/13 14:39:52;;;;;;;11.40;9.23;;;;;;;;;;5076444;28;20440;-54
2021/09/13 14:42:50;;;;;;;16.97;10.93;;;;;;;;;;5073944;28;20451;-50
2021/09/13 14:45:19;;;;;;;14.67;10.90;;;;;;;;;;5075819;28;20453;-53
2021/09/13 14:47:46;;;;;;;15.27;11.40;;;;;;;;;;5075494;28;20449;-55
2021/09/13 14:50:18;;;;;;;12.23;10.03;;;;;;;;;;5074511;28;20449;-57
2021/09/13 14:53:03;;;;;;;12.50;11.20;;;;;;;;;;5074175;28;20508;-57
2021/09/13 14:56:14;;;;;;;16.87;11.50;;;;;;;;;;5075222;28;20449;-58
2021/09/13 14:58:59;;;;;;;14.83;11.57;;;;;;;;;;5055462;28;20440;-52
2021/09/13 15:01:29;;;;;;;11.57;10.37;;;;;;;;;;5071900;28;20505;-54
2021/09/13 15:07:26;;;;;;;16.50;10.23;;;;;;;;;;5070944;28;20816;-57
2021/09/13 15:09:54;;;;;;;11.60;10.33;;;;;;;;;;5074354;28;20475;-61
2021/09/13 15:12:51;;;;;;;12.40;10.57;;;;;;;;;;5074860;28;20468;-53
2021/09/13 15:15:27;;;;;;;19.50;13.10;;;;;;;;;;5060685;28;20477;-53
2021/09/13 15:17:56;;;;;;;9.40;8.40;;;;;;;;;;5074927;28;20463;-53
2021/09/13 15:20:28;;;;;;;14.80;10.00;;;;;;;;;;5075531;28;20465;-53
2021/09/13 15:22:56;;;;;;;16.23;11.50;;;;;;;;;;5074574;28;20460;-55
2021/09/13 15:25:29;;;;;;;12.30;10.83;;;;;;;;;;5073842;28;20566;-50
2021/09/13 15:28:07;;;;;;;11.80;10.57;;;;;;;;;;5055451;28;20465;-58
2021/09/13 15:30:49;;;;;;;12.70;11.10;;;;;;;;;;5065193;28;20483;-53
2021/09/13 15:33:22;;;;;;;10.43;9.33;;;;;;;;;;5075618;28;20453;-51
2021/09/13 15:35:49;;;;;;;9.83;8.37;;;;;;;;;;5074831;28;20468;-52
2021/09/13 15:41:14;;;;;;;11.60;8.83;;;;;;;;;;5074800;28;20507;-55
2021/09/13 15:43:44;;;;;;;14.17;10.07;;;;;;;;;;5074562;28;20452;-59
2021/09/13 15:49:28;;;;;;;13.90;11.50;;;;;;;;;;5076413;28;20431;-58
2021/09/13 15:51:57;;;;;;;16.27;13.40;;;;;;;;;;5088292;28;20475;-52
2021/09/13 15:54:30;;;;;;;13.87;11.17;;;;;;;;;;5065018;28;20833;-57
2021/09/13 15:56:59;;;;;;;10.50;9.50;;;;;;;;;;5058815;28;20521;-53
2021/09/13 15:59:30;;;;;;;15.67;9.90;;;;;;;;;;5062490;28;20599;-55
2021/09/13 16:01:58;;;;;;;11.40;9.03;;;;;;;;;;5087783;28;20507;-52
2021/09/13 16:10:17;;;;;;;14.10;10.97;;;;;;;;;;5078139;28;20461;-54
2021/09/13 16:12:56;;;;;;;11.90;9.37;;;;;;;;;;5076920;28;20444;-51
2021/09/13 16:15:30;;;;;;;14.87;11.20;;;;;;;;;;5078213;28;20630;-51
2021/09/13 16:17:57;;;;;;;10.47;9.33;;;;;;;;;;5083065;28;20479;-59
2021/09/13 16:20:29;;;;;;;14.97;11.67;;;;;;;;;;5066243;28;20469;-58
2021/09/13 16:23:05;;;;;;;9.63;8.63;;;;;;;;;;5073067;28;20561;-52
2021/09/13 16:25:54;;;;;;;11.43;8.57;;;;;;;;;;5068779;28;20569;-50
2021/09/13 16:28:25;;;;;;;17.20;11.23;;;;;;;;;;5061628;28;20457;-49